• Join FlightAware (Why Join?)
  • Login
  • US Flag 
08:52AM EDT


 

Airport Tracker/Info


-or-


 

Live Flight TrackerFlight Track Log ✈ VOZ8 ✈ 06-May-2013 ✈ KLAX - YBBN / BNE

Flight Track Log - Related Links

Times and Time Zones

All times are in EDT time to prevent confusion due to time zone crossing. See the VOZ8 flight status page for this flight to view local times or setup timezone preferences in your user account.

Time Position Orientation Groundspeed Altitude Reporting Facility
EDT Latitude Longitude Course Direction KTS MPH feet Rate Location/Type
03:50AM 33.9330 -118.4380 251° West 191 220 1,400  Level FlightAware
03:51AM 33.9280 -118.4480 239° Southwest 195 224 1,700 1,380 Climbing FlightAware
03:51AM 33.9140 -118.4640 223° Southwest 217 250 2,100 1,560 Climbing FlightAware
03:51AM 33.8910 -118.4910 224° Southwest 242 278 2,900 1,560 Climbing FlightAware
03:52AM 33.8800 -118.5040 224° Southwest 256 295 3,300 2,220 Climbing FlightAware
03:52AM 33.8630 -118.5240 224° Southwest 260 299 4,200 2,760 Climbing FlightAware
03:52AM 33.8530 -118.5350 222° Southwest 263 303 4,700 2,640 Climbing FlightAware
03:52AM 33.8420 -118.5540 235° Southwest 271 312 5,300 2,100 Climbing FlightAware
03:53AM 33.8380 -118.5950 263° West 287 330 6,300 1,980 Climbing FlightAware
03:53AM 33.8400 -118.6210 275° West 299 344 6,800 2,220 Climbing FlightAware
03:53AM 33.8440 -118.6620 277° West 304 350 7,800 2,580 Climbing FlightAware
03:54AM 33.8500 -118.7130 278° West 305 351 9,200 3,000 Climbing FlightAware
03:55AM 33.8570 -118.7810 277° West 297 342 11,300 2,280 Climbing FlightAware
03:55AM 33.8650 -118.8490 278° West 327 376 12,300 1,320 Climbing FlightAware
03:56AM 33.8740 -118.9360 277° West 365 420 13,200 1,740 Climbing FlightAware
03:57AM 33.8830 -119.0210 277° West 372 428 14,800 2,460 Climbing FlightAware
03:57AM 33.8930 -119.1130 277° West 374 430 16,700 2,460 Climbing FlightAware
03:58AM 33.9020 -119.1960 277° West 375 432 18,300 2,280 Climbing FlightAware
03:59AM 33.9120 -119.2880 277° West 376 433 20,000 2,100 Climbing FlightAware
04:00AM 33.9210 -119.3740 277° West 381 438 21,300 1,860 Climbing FlightAware
04:00AM 33.9280 -119.4510 276° West 381 438 22,500 1,860 Climbing FlightAware
04:01AM 33.9380 -119.5480 277° West 383 441 24,000 1,860 Climbing FlightAware
04:02AM 33.9480 -119.6380 278° West 387 445 25,200 1,620 Climbing FlightAware
04:02AM 33.9570 -119.7310 277° West 391 450 26,300 1,620 Climbing FlightAware
04:03AM 33.9660 -119.8210 277° West 387 445 27,500 1,680 Climbing FlightAware
04:04AM 33.9740 -119.9040 277° West 383 441 28,600 1,440 Climbing FlightAware
04:04AM 33.9820 -119.9770 278° West 385 443 29,300 960 Climbing FlightAware
04:05AM 33.9920 -120.0870 276° West 386 444 30,000 420 Climbing FlightAware
04:06AM 34.0010 -120.1730 277° West 387 445 30,000  Level FlightAware
04:07AM 34.0100 -120.2690 276° West 386 444 30,000  Level FlightAware
04:07AM 34.0160 -120.3340 276° West 385 443 30,000  Level FlightAware
04:08AM 34.0280 -120.4490 277° West 385 443 30,000  Level FlightAware
04:09AM 34.0360 -120.5350 276° West 385 443 30,000  Level FlightAware
04:09AM 34.0450 -120.6330 276° West 384 442 30,000  Level FlightAware
04:10AM 34.0520 -120.7170 276° West 384 442 30,000  Level FlightAware
04:11AM 34.0570 -120.7780 276° West 384 442 30,000  Level FlightAware
04:11AM 34.0680 -120.8890 277° West 387 445 30,000  Level FlightAware
04:12AM 34.0740 -120.9730 275° West 387 445 30,000  Level FlightAware
04:13AM 34.0800 -121.0460 276° West 387 445 30,000  Level FlightAware
04:13AM 34.0850 -121.1200 275° West 387 445 30,000  Level FlightAware
04:14AM 34.0939 -121.1919 275° West 390 449 30,000  Level Los Angeles Center
04:20AM 34.1620 -121.9750 275° West 404 465 30,000  Level FlightAware
04:20AM 34.1690 -122.0630 276° West 404 465 30,000  Level FlightAware
04:21AM 34.1740 -122.1400 275° West 404 465 30,000  Level FlightAware
04:22AM 34.1800 -122.2160 275° West 404 465 30,000  Level FlightAware
04:22AM 34.1850 -122.2930 275° West 404 465 30,000  Level FlightAware
04:23AM 34.1910 -122.3690 275° West 404 465 30,000  Level FlightAware
04:24AM 34.2080 -122.5510 276° West 412 474 30,000  Level FlightAware
04:25AM 34.2140 -122.6290 275° West 412 474 30,000  Level FlightAware
04:25AM 34.2190 -122.7070 274° West 412 474 30,000  Level FlightAware
04:26AM 34.2250 -122.7860 275° West 412 474 30,000  Level FlightAware
04:27AM 34.2310 -122.8640 275° West 412 474 30,000  Level FlightAware
04:27AM 34.2380 -122.9610 275° West 412 474 30,000  Level FlightAware
04:28AM 34.2430 -123.0390 274° West 412 474 30,000  Level FlightAware
04:29AM 34.2490 -123.1170 275° West 412 474 30,000  Level FlightAware
04:29AM 34.2550 -123.1950 275° West 412 474 30,000  Level FlightAware
04:30AM 34.2600 -123.2740 274° West 412 474 30,000  Level FlightAware
04:31AM 34.2660 -123.3520 275° West 412 474 30,000  Level FlightAware
04:32AM 34.2730 -123.4490 275° West 412 474 30,000  Level FlightAware
04:32AM 34.2790 -123.5280 275° West 412 474 30,000  Level FlightAware
04:33AM 34.2840 -123.6060 274° West 412 474 30,000  Level FlightAware
04:36AM 34.2149 -124.0134 259° West  Level FlightAware Approximate
04:37AM 34.1883 -124.1679 258° West  Level FlightAware Approximate
04:38AM 34.1615 -124.3223 258° West  Level FlightAware Approximate
04:39AM 34.1345 -124.4767 258° West  Level FlightAware Approximate
04:40AM 34.1170 -124.6378 263° West  Level FlightAware Approximate
04:41AM 34.1002 -124.7942 263° West  Level FlightAware Approximate
04:42AM 34.0833 -124.9505 265° West  Level FlightAware Approximate
04:42AM 34.1000 -124.9500 264° West 413 475 30,000  Level Oakland Oceanic (ODAPS)
04:43AM 34.0714 -125.1074 265° West  Level FlightAware Approximate
04:44AM 34.0593 -125.2643 265° West  Level FlightAware Approximate
04:45AM 34.0471 -125.4212 265° West  Level FlightAware Approximate
04:46AM 34.0346 -125.5780 265° West  Level FlightAware Approximate
04:47AM 34.0219 -125.7348 264° West  Level FlightAware Approximate
04:48AM 34.0258 -125.7377 263° West 413 475 30,000  Level FlightAware Transoceanic
04:49AM 34.0130 -125.8689 263° West 413 475 30,000  Level FlightAware Transoceanic
04:49AM 34.0000 -126.0000 254° West 438 504 30,000  Level Oakland Oceanic (ODAPS)
04:50AM 34.0000 -126.0000 254° West 413 475 30,000  Level FlightAware Transoceanic
04:51AM 33.9665 -126.1444 254° West 413 475 30,000  Level FlightAware Transoceanic
04:52AM 33.9329 -126.2887 254° West 413 475 30,000  Level FlightAware Transoceanic
04:53AM 33.8991 -126.4330 254° West 413 475 30,000  Level FlightAware Transoceanic
04:54AM 33.8651 -126.5770 254° West 413 475 30,000  Level FlightAware Transoceanic
04:55AM 33.8309 -126.7210 254° West 438 504 30,000  Level FlightAware Transoceanic
04:56AM 33.7966 -126.8649 254° West 438 504 30,000  Level FlightAware Transoceanic
04:56AM 33.7833 -126.8833 254° West 445 512 30,000  Level Oakland Oceanic (ODAPS)
04:57AM 33.7621 -127.0086 254° West 438 504 30,000  Level FlightAware Transoceanic
04:58AM 33.7275 -127.1522 254° West 438 504 30,000  Level FlightAware Transoceanic
04:59AM 33.6926 -127.2958 254° West 438 504 30,000  Level FlightAware Transoceanic
05:00AM 33.6577 -127.4391 254° West 438 504 30,000  Level FlightAware Transoceanic
05:01AM 33.6225 -127.5824 254° West 438 504 30,000  Level FlightAware Transoceanic
05:02AM 33.5774 -127.7389 254° West 445 512 30,000  Level FlightAware Transoceanic
05:03AM 33.5426 -127.8811 254° West 445 512 30,000  Level FlightAware Transoceanic
05:04AM 33.5075 -128.0231 253° West 445 512 30,000  Level FlightAware Transoceanic
05:05AM 33.4723 -128.1651 253° West 445 512 30,000  Level FlightAware Transoceanic
05:06AM 33.4369 -128.3070 253° West 445 512 30,000  Level FlightAware Transoceanic
05:07AM 33.4014 -128.4487 253° West 445 512 30,000  Level FlightAware Transoceanic
05:08AM 33.3657 -128.5903 253° West 445 512 30,000  Level FlightAware Transoceanic
05:09AM 33.3299 -128.7318 253° West 445 512 30,000  Level FlightAware Transoceanic
05:10AM 33.2938 -128.8732 253° West 445 512 30,000  Level FlightAware Transoceanic
05:10AM 33.3000 -128.8667 253° West 454 522 30,000  Level Oakland Oceanic (ODAPS)
05:11AM 33.2577 -129.0145 253° West 445 512 30,000  Level FlightAware Transoceanic
05:12AM 33.2213 -129.1556 253° West 445 512 30,000  Level FlightAware Transoceanic
05:13AM 33.1848 -129.2966 253° West 445 512 30,000  Level FlightAware Transoceanic
05:14AM 33.1482 -129.4375 253° West 445 512 30,000  Level FlightAware Transoceanic
05:15AM 33.1114 -129.5783 253° West 445 512 30,000  Level FlightAware Transoceanic
05:16AM 33.0760 -129.7174 252° West 454 522 30,000  Level FlightAware Transoceanic
05:17AM 33.0381 -129.8588 252° West 454 522 30,000  Level FlightAware Transoceanic
05:17AM 33.0000 -130.0000 253° West 465 535 30,000  Level Oakland Oceanic (ODAPS)
05:18AM 33.0000 -130.0000 253° West 454 522 30,000  Level FlightAware Transoceanic
05:19AM 32.9622 -130.1494 253° West 454 522 30,000  Level FlightAware Transoceanic
05:20AM 32.9243 -130.2988 253° West 454 522 30,000  Level FlightAware Transoceanic
05:21AM 32.8862 -130.4480 253° West 454 522 30,000  Level FlightAware Transoceanic
05:22AM 32.8479 -130.5970 253° West 454 522 30,000  Level FlightAware Transoceanic
05:23AM 32.8095 -130.7460 253° West 454 522 30,000  Level FlightAware Transoceanic
05:23AM 32.7833 -130.8500 253° West 473 544 30,000  Level Oakland Oceanic (ODAPS)
05:24AM 32.7741 -130.8820 253° West 465 535 30,000  Level FlightAware Transoceanic
05:25AM 32.7359 -131.0286 253° West 465 535 30,000  Level FlightAware Transoceanic
05:26AM 32.6975 -131.1750 253° West 465 535 30,000  Level FlightAware Transoceanic
05:27AM 32.6589 -131.3214 253° West 465 535 30,000  Level FlightAware Transoceanic
05:28AM 32.6202 -131.4675 252° West 465 535 30,000  Level FlightAware Transoceanic
05:29AM 32.5812 -131.6136 252° West 465 535 30,000  Level FlightAware Transoceanic
05:30AM 32.5469 -131.7446 252° West 473 544 30,000  Level FlightAware Transoceanic
05:31AM 32.5069 -131.8932 252° West 473 544 30,000  Level FlightAware Transoceanic
05:32AM 32.4667 -132.0417 252° West 473 544 30,000  Level FlightAware Transoceanic
05:33AM 32.4263 -132.1901 252° West 473 544 30,000  Level FlightAware Transoceanic
05:34AM 32.3858 -132.3384 252° West 473 544 30,000  Level FlightAware Transoceanic
05:35AM 32.3451 -132.4865 252° West 473 544 30,000  Level FlightAware Transoceanic
05:36AM 32.3042 -132.6344 252° West 473 544 30,000  Level FlightAware Transoceanic
05:37AM 32.2632 -132.7823 252° West 473 544 30,000  Level FlightAware Transoceanic
05:37AM 32.2333 -132.8667 252° West 474 545 30,000  Level Oakland Oceanic (ODAPS)
05:38AM 32.2219 -132.9300 252° West 473 544 30,000  Level FlightAware Transoceanic
05:39AM 32.1805 -133.0776 252° West 473 544 30,000  Level FlightAware Transoceanic
05:40AM 32.1390 -133.2250 252° West 473 544 30,000  Level FlightAware Transoceanic
05:41AM 32.0972 -133.3723 251° West 473 544 30,000  Level FlightAware Transoceanic
05:42AM 32.0553 -133.5195 251° West 473 544 30,000  Level FlightAware Transoceanic
05:43AM 32.0238 -133.6099 251° West 474 545 30,000  Level FlightAware Transoceanic
05:44AM 31.9813 -133.7581 251° West 474 545 30,000  Level FlightAware Transoceanic
05:45AM 31.9387 -133.9062 251° West 474 545 30,000  Level FlightAware Transoceanic
05:46AM 31.8960 -134.0541 251° West 474 545 30,000  Level FlightAware Transoceanic
05:47AM 31.8530 -134.2020 251° West 474 545 30,000  Level FlightAware Transoceanic
05:48AM 31.8099 -134.3496 251° West 474 545 30,000  Level FlightAware Transoceanic
05:49AM 31.7666 -134.4972 251° West 474 545 30,000  Level FlightAware Transoceanic
05:50AM 31.7232 -134.6446 251° West 474 545 30,000  Level FlightAware Transoceanic
05:51AM 31.6796 -134.7918 251° West 474 545 30,000 1,140 Level FlightAware Transoceanic
05:51AM 31.6667 -134.8667 251° West 474 545 32,000  Climbing Oakland Oceanic (ODAPS)
05:52AM 31.6358 -134.9389 251° West 474 545 30,000 -1,560 Descending FlightAware Transoceanic
05:53AM 31.5918 -135.0859 251° West 474 545 30,000  Level FlightAware Transoceanic
05:54AM 31.5477 -135.2328 251° West 474 545 30,000  Level FlightAware Transoceanic
05:55AM 31.5034 -135.3795 250° West 474 545 30,000  Level FlightAware Transoceanic
05:56AM 31.4589 -135.5261 250° West 474 545 30,000 960 Level FlightAware Transoceanic
05:57AM 31.4031 -135.7346 250° West 474 545 32,000 960 Climbing FlightAware Transoceanic
05:58AM 31.3586 -135.8788 250° West 474 545 32,000  Level FlightAware Transoceanic
05:59AM 31.3140 -136.0228 250° West 474 545 32,000  Level FlightAware Transoceanic
06:00AM 31.2691 -136.1667 250° West 474 545 32,000  Level FlightAware Transoceanic
06:01AM 31.2242 -136.3105 250° West 474 545 32,000  Level FlightAware Transoceanic
06:02AM 31.1790 -136.4541 250° West 474 545 32,000  Level FlightAware Transoceanic
06:03AM 31.1337 -136.5976 250° West 474 545 32,000  Level FlightAware Transoceanic
06:04AM 31.0883 -136.7409 250° West 474 545 32,000  Level FlightAware Transoceanic
06:05AM 31.0427 -136.8841 250° West 474 545 32,000  Level FlightAware Transoceanic
06:05AM 31.0500 -136.8500 250° West 478 550 32,000  Level Oakland Oceanic (ODAPS)
06:06AM 30.9969 -137.0272 249° West 474 545 32,000  Level FlightAware Transoceanic
06:07AM 30.9510 -137.1702 249° West 474 545 32,000  Level FlightAware Transoceanic
06:08AM 30.9049 -137.3130 249° West 474 545 32,000  Level FlightAware Transoceanic
06:09AM 30.8587 -137.4556 249° West 474 545 32,000  Level FlightAware Transoceanic
06:10AM 30.8123 -137.5982 249° West 474 545 32,000  Level FlightAware Transoceanic
06:11AM 30.7712 -137.7158 249° West 478 550 32,000  Level FlightAware Transoceanic
06:12AM 30.7242 -137.8596 249° West 478 550 32,000  Level FlightAware Transoceanic
06:13AM 30.6770 -138.0033 249° West 478 550 32,000  Level FlightAware Transoceanic
06:14AM 30.6296 -138.1469 249° West 478 550 32,000  Level FlightAware Transoceanic
06:15AM 30.5821 -138.2903 249° West 478 550 32,000  Level FlightAware Transoceanic
06:16AM 30.5345 -138.4335 249° West 478 550 32,000  Level FlightAware Transoceanic
06:17AM 30.4867 -138.5766 249° West 478 550 32,000  Level FlightAware Transoceanic
06:18AM 30.4387 -138.7196 249° West 478 550 32,000  Level FlightAware Transoceanic
06:19AM 30.3906 -138.8624 249° West 478 550 32,000  Level FlightAware Transoceanic
06:19AM 30.4000 -138.8500 248° West 481 554 32,000  Level Oakland Oceanic (ODAPS)
06:20AM 30.3423 -139.0051 249° West 478 550 32,000  Level FlightAware Transoceanic
06:21AM 30.2938 -139.1477 248° West 478 550 32,000  Level FlightAware Transoceanic
06:22AM 30.2453 -139.2901 248° West 478 550 32,000  Level FlightAware Transoceanic
06:23AM 30.1965 -139.4323 248° West 478 550 32,000  Level FlightAware Transoceanic
06:24AM 30.1476 -139.5745 248° West 478 550 32,000  Level FlightAware Transoceanic
06:25AM 30.1009 -139.7134 248° West 481 554 32,000  Level FlightAware Transoceanic
06:26AM 30.0506 -139.8568 248° West 481 554 32,000  Level FlightAware Transoceanic
06:27AM 30.0000 -140.0000 235° Southwest 481 554 32,000  Level FlightAware Transoceanic
06:27AM 30.0000 -140.0000 235° Southwest 483 556 32,000  Level Oakland Oceanic (ODAPS)
06:28AM 29.9228 -140.1279 235° Southwest 481 554 32,000  Level FlightAware Transoceanic
06:29AM 29.8455 -140.2557 235° Southwest 481 554 32,000  Level FlightAware Transoceanic
06:30AM 29.7680 -140.3833 235° Southwest 481 554 32,000  Level FlightAware Transoceanic
06:31AM 29.6905 -140.5106 235° Southwest 481 554 32,000  Level FlightAware Transoceanic
06:32AM 29.6128 -140.6378 235° Southwest 481 554 32,000  Level FlightAware Transoceanic
06:33AM 29.5350 -140.7647 235° Southwest 483 556 32,000  Level FlightAware Transoceanic
06:33AM 29.5500 -140.7333 235° Southwest 482 555 32,000  Level Oakland Oceanic (ODAPS)
06:34AM 29.4571 -140.8915 235° Southwest 483 556 32,000  Level FlightAware Transoceanic
06:35AM 29.3790 -141.0181 235° Southwest 483 556 32,000  Level FlightAware Transoceanic
06:36AM 29.3008 -141.1445 235° Southwest 483 556 32,000  Level FlightAware Transoceanic
06:37AM 29.2226 -141.2706 235° Southwest 483 556 32,000  Level FlightAware Transoceanic
06:38AM 29.1442 -141.3966 234° Southwest 483 556 32,000  Level FlightAware Transoceanic
06:39AM 29.0893 -141.4787 234° Southwest 482 555 32,000  Level FlightAware Transoceanic
06:40AM 29.0121 -141.6022 234° Southwest 482 555 32,000  Level FlightAware Transoceanic
06:41AM 28.9348 -141.7256 234° Southwest 482 555 32,000  Level FlightAware Transoceanic
06:42AM 28.8574 -141.8488 234° Southwest 482 555 32,000  Level FlightAware Transoceanic
06:43AM 28.7799 -141.9719 234° Southwest 482 555 32,000  Level FlightAware Transoceanic
06:44AM 28.7022 -142.0947 234° Southwest 482 555 32,000  Level FlightAware Transoceanic
06:45AM 28.6245 -142.2173 234° Southwest 482 555 32,000  Level FlightAware Transoceanic
06:46AM 28.5466 -142.3398 234° Southwest 482 555 32,000  Level FlightAware Transoceanic
06:47AM 28.4686 -142.4621 234° Southwest 482 555 32,000  Level FlightAware Transoceanic
06:47AM 28.4833 -142.4500 234° Southwest 481 554 32,000  Level Oakland Oceanic (ODAPS)
06:48AM 28.3906 -142.5842 234° Southwest 482 555 32,000  Level FlightAware Transoceanic
06:49AM 28.3124 -142.7062 234° Southwest 482 555 32,000  Level FlightAware Transoceanic
06:50AM 28.2341 -142.8279 234° Southwest 482 555 32,000  Level FlightAware Transoceanic
06:51AM 28.1557 -142.9495 234° Southwest 482 555 32,000  Level FlightAware Transoceanic
06:52AM 28.0772 -143.0709 234° Southwest 482 555 32,000  Level FlightAware Transoceanic
06:53AM 28.0105 -143.1824 234° Southwest 481 554 32,000  Level FlightAware Transoceanic
06:54AM 27.9313 -143.3039 234° Southwest 481 554 32,000  Level FlightAware Transoceanic
06:55AM 27.8520 -143.4252 233° Southwest 481 554 32,000  Level FlightAware Transoceanic
06:56AM 27.7726 -143.5463 233° Southwest 481 554 32,000  Level FlightAware Transoceanic
06:57AM 27.6931 -143.6672 233° Southwest 481 554 32,000  Level FlightAware Transoceanic
06:58AM 27.6135 -143.7879 233° Southwest 481 554 32,000  Level FlightAware Transoceanic
06:59AM 27.5338 -143.9085 233° Southwest 481 554 32,000  Level FlightAware Transoceanic
07:00AM 27.4539 -144.0289 233° Southwest 481 554 32,000  Level FlightAware Transoceanic
07:00AM 27.3833 -144.1333 233° Southwest 492 566 32,000  Level Oakland Oceanic (ODAPS)
07:01AM 27.3740 -144.1491 233° Southwest 481 554 32,000  Level FlightAware Transoceanic
07:02AM 27.2940 -144.2691 233° Southwest 481 554 32,000  Level FlightAware Transoceanic
07:03AM 27.2139 -144.3890 233° Southwest 481 554 32,000  Level FlightAware Transoceanic
07:04AM 27.1336 -144.5087 233° Southwest 481 554 32,000  Level FlightAware Transoceanic
07:05AM 27.0533 -144.6282 233° Southwest 481 554 32,000  Level FlightAware Transoceanic
07:06AM 26.9729 -144.7476 233° Southwest 481 554 32,000  Level FlightAware Transoceanic
07:07AM 26.8680 -144.9016 233° Southwest 492 566 32,000  Level FlightAware Transoceanic
07:08AM 26.7817 -145.0290 233° Southwest 492 566 32,000  Level FlightAware Transoceanic
07:09AM 26.6953 -145.1562 233° Southwest 492 566 32,000  Level FlightAware Transoceanic
07:10AM 26.6088 -145.2832 233° Southwest 492 566 32,000  Level FlightAware Transoceanic
07:11AM 26.5221 -145.4099 233° Southwest 492 566 32,000  Level FlightAware Transoceanic
07:12AM 26.4354 -145.5365 233° Southwest 492 566 32,000  Level FlightAware Transoceanic
07:13AM 26.3485 -145.6629 232° Southwest 492 566 32,000  Level FlightAware Transoceanic
07:14AM 26.2616 -145.7892 232° Southwest 492 566 32,000  Level FlightAware Transoceanic
07:14AM 26.2500 -145.8333 230° Southwest 488 562 32,000  Level Oakland Oceanic (ODAPS)
07:15AM 26.1745 -145.9152 232° Southwest 492 566 32,000  Level FlightAware Transoceanic
07:16AM 26.0873 -146.0410 232° Southwest 492 566 32,000  Level FlightAware Transoceanic
07:17AM 26.0000 -146.1667 230° Southwest 492 566 32,000  Level FlightAware Transoceanic
07:17AM 26.0000 -146.1667 230° Southwest 491 565 32,000  Level Oakland Oceanic (ODAPS)
07:18AM 25.9132 -146.2821 230° Southwest 492 566 32,000  Level FlightAware Transoceanic
07:19AM 25.8263 -146.3973 230° Southwest 492 566 32,000  Level FlightAware Transoceanic
07:20AM 25.7393 -146.5124 230° Southwest 492 566 32,000  Level FlightAware Transoceanic
07:21AM 25.6522 -146.6273 230° Southwest 488 562 32,000  Level FlightAware Transoceanic
07:22AM 25.5650 -146.7421 230° Southwest 488 562 32,000  Level FlightAware Transoceanic
07:23AM 25.4778 -146.8567 230° Southwest 488 562 32,000  Level FlightAware Transoceanic
07:24AM 25.3904 -146.9711 230° Southwest 491 565 32,000  Level FlightAware Transoceanic
07:25AM 25.3030 -147.0853 230° Southwest 491 565 32,000  Level FlightAware Transoceanic
07:26AM 25.2154 -147.1994 230° Southwest 491 565 32,000  Level FlightAware Transoceanic
07:27AM 25.1278 -147.3133 230° Southwest 491 565 32,000  Level FlightAware Transoceanic
07:28AM 25.0401 -147.4271 230° Southwest 491 565 32,000  Level FlightAware Transoceanic
07:28AM 25.0333 -147.4333 230° Southwest 487 560 32,000  Level Oakland Oceanic (ODAPS)
07:29AM 24.9523 -147.5407 230° Southwest 491 565 32,000  Level FlightAware Transoceanic
07:30AM 24.8645 -147.6541 229° Southwest 491 565 32,000  Level FlightAware Transoceanic
07:31AM 24.7765 -147.7674 229° Southwest 491 565 32,000  Level FlightAware Transoceanic
07:32AM 24.6884 -147.8805 229° Southwest 491 565 32,000  Level FlightAware Transoceanic
07:33AM 24.6003 -147.9934 229° Southwest 491 565 32,000  Level FlightAware Transoceanic
07:34AM 24.5071 -148.1108 229° Southwest 487 560 32,000  Level FlightAware Transoceanic
07:35AM 24.4191 -148.2231 229° Southwest 487 560 32,000  Level FlightAware Transoceanic
07:36AM 24.3310 -148.3353 229° Southwest 487 560 32,000  Level FlightAware Transoceanic
07:37AM 24.2428 -148.4474 229° Southwest 487 560 32,000  Level FlightAware Transoceanic
07:38AM 24.1545 -148.5593 229° Southwest 487 560 32,000  Level FlightAware Transoceanic
07:39AM 24.0662 -148.6710 229° Southwest 487 560 32,000  Level FlightAware Transoceanic
07:40AM 23.9778 -148.7826 229° Southwest 487 560 32,000  Level FlightAware Transoceanic
07:41AM 23.8893 -148.8940 229° Southwest 487 560 32,000  Level FlightAware Transoceanic
07:42AM 23.8007 -149.0053 229° Southwest 487 560 32,000  Level FlightAware Transoceanic
07:42AM 23.8333 -148.9833 228° Southwest 487 560 32,000  Level Oakland Oceanic (ODAPS)
07:43AM 23.7121 -149.1164 229° Southwest 487 560 32,000  Level FlightAware Transoceanic
07:44AM 23.6233 -149.2274 229° Southwest 487 560 32,000  Level FlightAware Transoceanic
07:45AM 23.5345 -149.3382 229° Southwest 487 560 32,000  Level FlightAware Transoceanic
07:46AM 23.4456 -149.4489 229° Southwest 487 560 32,000  Level FlightAware Transoceanic
07:47AM 23.3566 -149.5594 229° Southwest 487 560 32,000  Level FlightAware Transoceanic
07:48AM 23.3341 -149.5949 228° Southwest 487 560 32,000  Level FlightAware Transoceanic
07:49AM 23.2507 -149.6963 228° Southwest 487 560 32,000  Level FlightAware Transoceanic
07:50AM 23.1672 -149.7977 228° Southwest 487 560 32,000  Level FlightAware Transoceanic
07:51AM 23.0836 -149.8989 228° Southwest 487 560 32,000  Level FlightAware Transoceanic
07:51AM 23.0000 -150.0000 242° Southwest 478 550 32,000  Level Oakland Oceanic (ODAPS)
07:52AM 23.0000 -150.0000 242° Southwest 487 560 32,000  Level FlightAware Transoceanic
07:53AM 22.9375 -150.1269 242° Southwest 487 560 32,000  Level FlightAware Transoceanic
07:54AM 22.8750 -150.2538 242° Southwest 487 560 32,000  Level FlightAware Transoceanic
07:55AM 22.8123 -150.3805 242° Southwest 487 560 32,000  Level FlightAware Transoceanic
07:56AM 22.7496 -150.5071 242° Southwest 487 560 32,000  Level FlightAware Transoceanic
07:56AM 22.7167 -150.5667 242° Southwest 480 552 32,000  Level Oakland Oceanic (ODAPS)
07:57AM 22.6868 -150.6335 242° Southwest 487 560 32,000  Level FlightAware Transoceanic
07:58AM 22.6238 -150.7599 242° Southwest 478 550 32,000  Level FlightAware Transoceanic
07:59AM 22.5607 -150.8862 242° Southwest 478 550 32,000  Level FlightAware Transoceanic
08:00AM 22.4976 -151.0123 242° Southwest 478 550 32,000  Level FlightAware Transoceanic
08:01AM 22.4343 -151.1383 241° Southwest 478 550 32,000  Level FlightAware Transoceanic
08:02AM 22.3577 -151.2879 242° Southwest 480 552 32,000  Level FlightAware Transoceanic
08:03AM 22.2976 -151.4077 242° Southwest 480 552 32,000  Level FlightAware Transoceanic
08:03AM 22.2667 -151.4833 240° Southwest 480 552 32,000  Level Oakland Oceanic (ODAPS)
08:04AM 22.2374 -151.5275 241° Southwest 480 552 32,000  Level FlightAware Transoceanic
08:05AM 22.1771 -151.6471 241° Southwest 480 552 32,000  Level FlightAware Transoceanic
08:05AM 22.1167 -151.7667 242° Southwest 480 552 32,000  Level Oakland Oceanic (ODAPS)
08:06AM 22.1167 -151.7667 242° Southwest 480 552 32,000  Level FlightAware Transoceanic
08:07AM 22.1164 -151.7669 223° Southwest  Level FlightAware Approximate
08:07AM 22.0333 -151.9333 242° Southwest 480 552 32,000  Level Oakland Oceanic (ODAPS)
08:07AM 22.0000 -152.0000 229° Southwest 480 552 32,000  Level Oakland Oceanic (ODAPS)
08:08AM 22.0518 -151.8878 244° Southwest  Level FlightAware Approximate
08:08AM 22.0000 -152.0000 229° Southwest 493 567 32,000  Level Oakland Oceanic (ODAPS)
08:09AM 21.9905 -152.0116 229° Southwest  Level FlightAware Approximate
08:10AM 21.7560 -152.1334 230° Southwest  Level Estimated
08:11AM 21.6713 -152.2404 230° Southwest  Level Estimated
08:12AM 21.6419 -152.4465 229° Southwest 480 552 32,000  Level FlightAware Transoceanic
08:13AM 21.5522 -152.5578 229° Southwest 480 552 32,000  Level FlightAware Transoceanic
08:14AM 21.4520 -152.6818 229° Southwest 493 567 32,000  Level FlightAware Transoceanic
08:15AM 21.3604 -152.7949 229° Southwest 493 567 32,000  Level FlightAware Transoceanic
08:16AM 21.2687 -152.9079 229° Southwest 493 567 32,000  Level FlightAware Transoceanic
08:17AM 21.1770 -153.0207 229° Southwest 493 567 32,000  Level FlightAware Transoceanic
08:18AM 21.0852 -153.1334 229° Southwest 493 567 32,000  Level FlightAware Transoceanic
08:19AM 20.9933 -153.2460 229° Southwest 493 567 32,000  Level FlightAware Transoceanic
08:20AM 20.9013 -153.3584 229° Southwest 493 567 32,000  Level FlightAware Transoceanic
08:20AM 20.8167 -153.4667 229° Southwest 495 570 32,000  Level Oakland Oceanic (ODAPS)
08:21AM 20.8092 -153.4707 229° Southwest 493 567 32,000  Level FlightAware Transoceanic
08:22AM 20.7171 -153.5828 229° Southwest 493 567 32,000  Level FlightAware Transoceanic
08:23AM 20.6249 -153.6949 229° Southwest 493 567 32,000  Level FlightAware Transoceanic
08:24AM 20.5326 -153.8067 229° Southwest 493 567 32,000  Level FlightAware Transoceanic
08:25AM 20.4403 -153.9185 229° Southwest 493 567 32,000  Level FlightAware Transoceanic
08:26AM 20.3479 -154.0301 229° Southwest 493 567 32,000  Level FlightAware Transoceanic
08:27AM 20.2617 -154.1382 228° Southwest 495 570 32,000  Level FlightAware Transoceanic
08:28AM 20.1690 -154.2496 228° Southwest 495 570 32,000  Level FlightAware Transoceanic
08:29AM 20.0762 -154.3610 228° Southwest 495 570 32,000  Level FlightAware Transoceanic
08:30AM 19.9833 -154.4722 228° Southwest 495 570 32,000  Level FlightAware Transoceanic
08:31AM 19.8904 -154.5832 228° Southwest 495 570 32,000  Level FlightAware Transoceanic
08:32AM 19.7973 -154.6941 228° Southwest 495 570 32,000  Level FlightAware Transoceanic
08:33AM 19.7043 -154.8049 228° Southwest 495 570 32,000  Level FlightAware Transoceanic
08:34AM 19.6111 -154.9156 228° Southwest 495 570 32,000  Level FlightAware Transoceanic
08:34AM 19.5667 -154.9667 228° Southwest 494 568 32,000  Level Oakland Oceanic (ODAPS)
08:35AM 19.5179 -155.0261 228° Southwest 495 570 32,000  Level FlightAware Transoceanic
08:36AM 19.4246 -155.1365 228° Southwest 495 570 32,000  Level FlightAware Transoceanic
08:37AM 19.3312 -155.2468 228° Southwest 495 570 32,000  Level FlightAware Transoceanic
08:38AM 19.2378 -155.3570 228° Southwest 495 570 32,000  Level FlightAware Transoceanic
08:39AM 19.1443 -155.4670 228° Southwest 495 570 32,000  Level FlightAware Transoceanic
08:40AM 19.0508 -155.5769 228° Southwest 495 570 32,000  Level FlightAware Transoceanic
08:41AM 19.0165 -155.6159 228° Southwest 494 568 32,000  Level FlightAware Transoceanic
08:42AM 18.9245 -155.7237 228° Southwest 494 568 32,000  Level FlightAware Transoceanic
08:43AM 18.8326 -155.8314 228° Southwest 494 568 32,000  Level FlightAware Transoceanic
08:44AM 18.7405 -155.9390 228° Southwest 494 568 32,000  Level FlightAware Transoceanic
08:45AM 18.6484 -156.0464 228° Southwest 494 568 32,000  Level FlightAware Transoceanic
08:46AM 18.5562 -156.1537 228° Southwest 494 568 32,000  Level FlightAware Transoceanic
08:47AM 18.4640 -156.2609 228° Southwest 494 568 32,000  Level FlightAware Transoceanic
08:48AM 18.3717 -156.3680 228° Southwest 494 568 32,000  Level FlightAware Transoceanic
08:48AM 18.3000 -156.4500 228° Southwest 500 575 32,000  Level Oakland Oceanic (ODAPS)
08:49AM 18.2794 -156.4750 228° Southwest 494 568 32,000  Level FlightAware Transoceanic
08:50AM 18.1870 -156.5818 228° Southwest 494 568 32,000  Level FlightAware Transoceanic
08:51AM 18.0945 -156.6886 228° Southwest 494 568 32,000  Level FlightAware Transoceanic
08:52AM 18.0020 -156.7952 228° Southwest 494 568 32,000  Level FlightAware Transoceanic
08:53AM 17.9094 -156.9018 228° Southwest 494 568 32,000  Level FlightAware Transoceanic
08:54AM 17.8167 -157.0082 228° Southwest 494 568 32,000  Level FlightAware Transoceanic
08:55AM 17.7344 -157.1021 228° Southwest 500 575 32,000  Level FlightAware Transoceanic
08:56AM 17.6399 -157.2103 227° Southwest 500 575 32,000  Level FlightAware Transoceanic
08:57AM 17.5454 -157.3185 227° Southwest 500 575 32,000  Level FlightAware Transoceanic
08:58AM 17.4508 -157.4265 227° Southwest 500 575 32,000  Level FlightAware Transoceanic
08:59AM 17.3561 -157.5345 227° Southwest 500 575 32,000  Level FlightAware Transoceanic
09:00AM 17.2614 -157.6423 227° Southwest 500 575 32,000  Level FlightAware Transoceanic
09:00AM 17.1833 -157.7333 224° Southwest 464 534 32,000  Level Oakland Oceanic (ODAPS)
09:00AM 17.1667 -157.7500 225° Southwest 503 579 32,000  Level Oakland Oceanic (ODAPS)
09:01AM 17.1667 -157.7500 225° Southwest 500 575 32,000  Level FlightAware Transoceanic
09:02AM 17.0687 -157.8534 225° Southwest 500 575 32,000  Level FlightAware Transoceanic
09:02AM 17.0000 -157.9333 225° Southwest 504 580 32,000  Level Oakland Oceanic (ODAPS)
09:03AM 16.9707 -157.9566 225° Southwest 500 575 32,000  Level FlightAware Transoceanic
09:04AM 16.8726 -158.0598 225° Southwest 500 575 32,000  Level FlightAware Transoceanic
09:05AM 16.7745 -158.1628 225° Southwest 500 575 32,000  Level FlightAware Transoceanic
09:06AM 16.6763 -158.2657 225° Southwest 464 534 32,000  Level FlightAware Transoceanic
09:07AM 16.5501 -158.3979 225° Southwest 503 579 32,000  Level FlightAware Transoceanic
09:08AM 16.4021 -158.5577 225° Southwest 504 580 32,000  Level FlightAware Transoceanic
09:09AM 16.3023 -158.6614 225° Southwest 504 580 32,000  Level FlightAware Transoceanic
09:10AM 16.2024 -158.7650 225° Southwest 504 580 32,000 960 Level FlightAware Transoceanic
09:10AM 16.4667 -158.5000 225° Southwest 505 581 33,000 1,740 Climbing Oakland Oceanic (ODAPS)
09:10AM 16.3333 -158.6333 225° Southwest 506 582 33,000 -1,020 Level Oakland Oceanic (ODAPS)
09:11AM 16.1024 -158.8685 225° Southwest 504 580 32,000  Descending FlightAware Transoceanic
09:11AM 16.1833 -158.7833 225° Southwest 506 582 33,000  Climbing Oakland Oceanic (ODAPS)
09:12AM 16.0025 -158.9718 225° Southwest 504 580 32,000 -540 Descending FlightAware Transoceanic
09:13AM 15.9024 -159.0751 225° Southwest 504 580 32,000  Level FlightAware Transoceanic
09:14AM 15.8024 -159.1783 225° Southwest 504 580 32,000  Level FlightAware Transoceanic
09:15AM 15.7022 -159.2813 225° Southwest 504 580 32,000 480 Level FlightAware Transoceanic
09:16AM 15.6298 -159.3598 225° Southwest 505 581 33,000 600 Climbing FlightAware Transoceanic
09:16AM 15.6167 -159.3667 225° Southwest 505 581 33,000  Level Oakland Oceanic (ODAPS)
09:17AM 15.5387 -159.4487 225° Southwest 506 582 33,000  Level FlightAware Transoceanic
09:18AM 15.4311 -159.5592 225° Southwest 506 582 33,000  Level FlightAware Transoceanic
09:19AM 15.3234 -159.6696 225° Southwest 506 582 33,000  Level FlightAware Transoceanic
09:20AM 15.2156 -159.7798 225° Southwest 506 582 33,000  Level FlightAware Transoceanic
09:21AM 15.1079 -159.8900 225° Southwest 506 582 33,000  Level FlightAware Transoceanic
09:22AM 15.0000 -160.0000 228° Southwest 505 581 33,000  Level FlightAware Transoceanic
09:22AM 15.0000 -160.0000 228° Southwest 493 567 33,000  Level Oakland Oceanic (ODAPS)
09:23AM 14.9100 -160.1019 228° Southwest 505 581 33,000  Level FlightAware Transoceanic
09:24AM 14.8199 -160.2038 228° Southwest 505 581 33,000  Level FlightAware Transoceanic
09:25AM 14.7298 -160.3056 228° Southwest 505 581 33,000  Level FlightAware Transoceanic
09:26AM 14.6397 -160.4072 227° Southwest 505 581 33,000  Level FlightAware Transoceanic
09:27AM 14.5495 -160.5088 227° Southwest 505 581 33,000  Level FlightAware Transoceanic
09:28AM 14.5315 -160.5291 227° Southwest 493 567 33,000  Level FlightAware Transoceanic
09:29AM 14.4376 -160.6347 227° Southwest 493 567 33,000  Level FlightAware Transoceanic
09:30AM 14.3437 -160.7402 227° Southwest 493 567 33,000  Level FlightAware Transoceanic
09:30AM 14.2833 -160.8167 227° Southwest 489 563 33,000  Level Oakland Oceanic (ODAPS)
09:31AM 14.2498 -160.8456 227° Southwest 493 567 33,000  Level FlightAware Transoceanic
09:32AM 14.1558 -160.9508 227° Southwest 493 567 33,000  Level FlightAware Transoceanic
09:33AM 14.0617 -161.0560 227° Southwest 493 567 33,000  Level FlightAware Transoceanic
09:34AM 13.9677 -161.1612 227° Southwest 493 567 33,000  Level FlightAware Transoceanic
09:35AM 13.8735 -161.2662 227° Southwest 493 567 33,000  Level FlightAware Transoceanic
09:36AM 13.7272 -161.4367 227° Southwest 489 563 33,000  Level FlightAware Transoceanic
09:37AM 13.6344 -161.5397 227° Southwest 489 563 33,000  Level FlightAware Transoceanic
09:38AM 13.5415 -161.6427 227° Southwest 489 563 33,000  Level FlightAware Transoceanic
09:39AM 13.4486 -161.7456 227° Southwest 489 563 33,000  Level FlightAware Transoceanic
09:40AM 13.3556 -161.8484 227° Southwest 489 563 33,000  Level FlightAware Transoceanic
09:41AM 13.2626 -161.9511 227° Southwest 489 563 33,000  Level FlightAware Transoceanic
09:42AM 13.1696 -162.0537 227° Southwest 489 563 33,000  Level FlightAware Transoceanic
09:43AM 13.0765 -162.1563 227° Southwest 489 563 33,000  Level FlightAware Transoceanic
09:44AM 12.9834 -162.2588 227° Southwest 489 563 33,000  Level FlightAware Transoceanic
09:44AM 12.9833 -162.2667 227° Southwest 492 566 33,000  Level Oakland Oceanic (ODAPS)
09:45AM 12.8902 -162.3612 227° Southwest 489 563 33,000  Level FlightAware Transoceanic
09:46AM 12.7970 -162.4635 227° Southwest 489 563 33,000  Level FlightAware Transoceanic
09:47AM 12.7038 -162.5658 227° Southwest 489 563 33,000  Level FlightAware Transoceanic
09:48AM 12.6105 -162.6680 227° Southwest 489 563 33,000  Level FlightAware Transoceanic
09:49AM 12.5172 -162.7701 227° Southwest 489 563 33,000  Level FlightAware Transoceanic
09:50AM 12.4238 -162.8784 227° Southwest 492 566 33,000  Level FlightAware Transoceanic
09:51AM 12.3304 -162.9801 227° Southwest 492 566 33,000  Level FlightAware Transoceanic
09:52AM 12.2369 -163.0817 227° Southwest 492 566 33,000  Level FlightAware Transoceanic
09:53AM 12.1434 -163.1832 227° Southwest 492 566 33,000  Level FlightAware Transoceanic
09:54AM 12.0499 -163.2847 227° Southwest 492 566 33,000  Level FlightAware Transoceanic
09:55AM 11.9564 -163.3861 227° Southwest 492 566 33,000  Level FlightAware Transoceanic
09:56AM 11.8628 -163.4875 227° Southwest 492 566 33,000  Level FlightAware Transoceanic
09:57AM 11.7692 -163.5887 227° Southwest 492 566 33,000  Level FlightAware Transoceanic
09:58AM 11.6756 -163.6899 227° Southwest 492 566 33,000  Level FlightAware Transoceanic
09:58AM 11.6833 -163.6833 227° Southwest 487 560 33,000  Level Oakland Oceanic (ODAPS)
09:59AM 11.5819 -163.7910 227° Southwest 492 566 33,000  Level FlightAware Transoceanic
10:00AM 11.4881 -163.8921 227° Southwest 492 566 33,000  Level FlightAware Transoceanic
10:01AM 11.3944 -163.9931 227° Southwest 492 566 33,000  Level FlightAware Transoceanic
10:02AM 11.3006 -164.0940 227° Southwest 492 566 33,000  Level FlightAware Transoceanic
10:03AM 11.2067 -164.1949 227° Southwest 492 566 33,000  Level FlightAware Transoceanic
10:04AM 11.1176 -164.2917 226° Southwest 487 560 33,000  Level FlightAware Transoceanic
10:05AM 11.0232 -164.3929 226° Southwest 487 560 33,000  Level FlightAware Transoceanic
10:06AM 10.9287 -164.4940 226° Southwest 487 560 33,000  Level FlightAware Transoceanic
10:07AM 10.8342 -164.5951 226° Southwest 487 560 33,000  Level FlightAware Transoceanic
10:08AM 10.7397 -164.6960 226° Southwest 487 560 33,000  Level FlightAware Transoceanic
10:09AM 10.6452 -164.7970 226° Southwest 487 560 33,000  Level FlightAware Transoceanic
10:10AM 10.5506 -164.8978 226° Southwest 487 560 33,000  Level FlightAware Transoceanic
10:11AM 10.4560 -164.9986 226° Southwest 487 560 33,000  Level FlightAware Transoceanic
10:12AM 10.3613 -165.0993 226° Southwest 487 560 33,000  Level FlightAware Transoceanic
10:12AM 10.4167 -165.0500 225° Southwest 473 544 33,000  Level Oakland Oceanic (ODAPS)
10:13AM 10.2667 -165.2000 228° Southwest 487 560 33,000  Level FlightAware Transoceanic
10:13AM 10.2667 -165.2000 228° Southwest 472 543 33,000  Level Oakland Oceanic (ODAPS)
10:14AM 10.1802 -165.2991 228° Southwest 487 560 33,000  Level FlightAware Transoceanic
10:15AM 10.0937 -165.3981 228° Southwest 487 560 33,000  Level FlightAware Transoceanic
10:16AM 10.0072 -165.4971 228° Southwest 487 560 33,000  Level FlightAware Transoceanic
10:17AM 9.9206 -165.5960 228° Southwest 487 560 33,000  Level FlightAware Transoceanic
10:18AM 9.8341 -165.6948 228° Southwest 473 544 33,000  Level FlightAware Transoceanic
10:19AM 9.7475 -165.7936 228° Southwest 473 544 33,000  Level FlightAware Transoceanic
10:20AM 9.6608 -165.8924 228° Southwest 472 543 33,000  Level FlightAware Transoceanic
10:21AM 9.5742 -165.9911 228° Southwest 472 543 33,000  Level FlightAware Transoceanic
10:22AM 9.4875 -166.0897 228° Southwest 472 543 33,000  Level FlightAware Transoceanic
10:23AM 9.4008 -166.1883 228° Southwest 472 543 33,000  Level FlightAware Transoceanic
10:24AM 9.3140 -166.2869 228° Southwest 472 543 33,000  Level FlightAware Transoceanic
10:25AM 9.2272 -166.3854 228° Southwest 472 543 33,000  Level FlightAware Transoceanic
10:25AM 9.2000 -166.4167 228° Southwest 473 544 33,000  Level Oakland Oceanic (ODAPS)
10:26AM 9.1404 -166.4839 228° Southwest 472 543 33,000  Level FlightAware Transoceanic
10:27AM 9.0536 -166.5823 228° Southwest 472 543 33,000  Level FlightAware Transoceanic
10:28AM 8.9667 -166.6806 228° Southwest 472 543 33,000  Level FlightAware Transoceanic
10:29AM 8.8799 -166.7789 228° Southwest 472 543 33,000  Level FlightAware Transoceanic
10:30AM 8.7930 -166.8772 228° Southwest 472 543 33,000  Level FlightAware Transoceanic
10:31AM 8.7060 -166.9754 228° Southwest 472 543 33,000  Level FlightAware Transoceanic
10:32AM 8.6688 -167.0178 228° Southwest 473 544 33,000  Level FlightAware Transoceanic
10:33AM 8.5802 -167.1178 228° Southwest 473 544 33,000  Level FlightAware Transoceanic
10:34AM 8.4915 -167.2178 228° Southwest 473 544 33,000  Level FlightAware Transoceanic
10:35AM 8.4029 -167.3177 228° Southwest 473 544 33,000  Level FlightAware Transoceanic
10:36AM 8.3142 -167.4176 228° Southwest 473 544 33,000  Level FlightAware Transoceanic
10:37AM 8.2254 -167.5174 228° Southwest 473 544 33,000  Level FlightAware Transoceanic
10:38AM 8.1367 -167.6172 228° Southwest 473 544 33,000  Level FlightAware Transoceanic
10:39AM 8.0479 -167.7169 228° Southwest 473 544 33,000  Level FlightAware Transoceanic
10:39AM 8.0000 -167.7833 228° Southwest 469 540 33,000  Level Oakland Oceanic (ODAPS)
10:40AM 7.9591 -167.8166 228° Southwest 473 544 33,000  Level FlightAware Transoceanic
10:41AM 7.8703 -167.9163 228° Southwest 473 544 33,000  Level FlightAware Transoceanic
10:42AM 7.7814 -168.0159 228° Southwest 473 544 33,000  Level FlightAware Transoceanic
10:43AM 7.6926 -168.1155 228° Southwest 473 544 33,000  Level FlightAware Transoceanic
10:44AM 7.6037 -168.2150 228° Southwest 473 544 33,000  Level FlightAware Transoceanic
10:45AM 7.5464 -168.2888 228° Southwest 469 540 33,000  Level FlightAware Transoceanic
10:46AM 7.4556 -168.3898 228° Southwest 469 540 33,000  Level FlightAware Transoceanic
10:47AM 7.3648 -168.4907 228° Southwest 469 540 33,000  Level FlightAware Transoceanic
10:48AM 7.2739 -168.5916 228° Southwest 469 540 33,000  Level FlightAware Transoceanic
10:49AM 7.1831 -168.6925 228° Southwest 469 540 33,000  Level FlightAware Transoceanic
10:50AM 7.0922 -168.7933 228° Southwest 469 540 33,000  Level FlightAware Transoceanic
10:51AM 7.0013 -168.8940 228° Southwest 469 540 33,000  Level FlightAware Transoceanic
10:52AM 6.9104 -168.9948 228° Southwest 469 540 33,000  Level FlightAware Transoceanic
10:53AM 6.8194 -169.0955 228° Southwest 469 540 33,000  Level FlightAware Transoceanic
10:53AM 6.7833 -169.1167 228° Southwest 469 540 33,000  Level Oakland Oceanic (ODAPS)
10:54AM 6.7285 -169.1961 228° Southwest 469 540 33,000  Level FlightAware Transoceanic
10:55AM 6.6375 -169.2967 228° Southwest 469 540 33,000  Level FlightAware Transoceanic
10:56AM 6.5465 -169.3973 228° Southwest 469 540 33,000  Level FlightAware Transoceanic
10:57AM 6.4554 -169.4978 228° Southwest 469 540 33,000  Level FlightAware Transoceanic
10:58AM 6.3644 -169.5983 228° Southwest 469 540 33,000  Level FlightAware Transoceanic
10:59AM 6.2613 -169.7059 228° Southwest 469 540 33,000  Level FlightAware Transoceanic
11:00AM 6.1742 -169.8039 228° Southwest 469 540 33,000  Level FlightAware Transoceanic
11:01AM 6.0871 -169.9020 228° Southwest 469 540 33,000  Level FlightAware Transoceanic
11:02AM 6.0000 -170.0000 226° Southwest 469 540 33,000  Level FlightAware Transoceanic
11:02AM 6.0000 -170.0000 226° Southwest 479 551 33,000  Level Oakland Oceanic (ODAPS)
11:03AM 5.9092 -170.0938 226° Southwest 469 540 33,000  Level FlightAware Transoceanic
11:04AM 5.8185 -170.1875 226° Southwest 469 540 33,000  Level FlightAware Transoceanic
11:05AM 5.7277 -170.2812 226° Southwest 469 540 33,000  Level FlightAware Transoceanic
11:06AM 5.6369 -170.3749 226° Southwest 469 540 33,000  Level FlightAware Transoceanic
11:07AM 5.5460 -170.4685 226° Southwest 469 540 33,000  Level FlightAware Transoceanic
11:07AM 5.5500 -170.4667 226° Southwest 482 555 33,000  Level Oakland Oceanic (ODAPS)
11:08AM 5.4453 -170.5723 226° Southwest 479 551 33,000  Level FlightAware Transoceanic
11:09AM 5.3528 -170.6676 226° Southwest 479 551 33,000  Level FlightAware Transoceanic
11:10AM 5.2603 -170.7629 226° Southwest 479 551 33,000  Level FlightAware Transoceanic
11:11AM 5.1677 -170.8581 226° Southwest 479 551 33,000  Level FlightAware Transoceanic
11:12AM 5.0752 -170.9533 226° Southwest 479 551 33,000  Level FlightAware Transoceanic
11:13AM 4.9934 -171.0394 226° Southwest 482 555 33,000  Level FlightAware Transoceanic
11:14AM 4.9006 -171.1347 226° Southwest 482 555 33,000  Level FlightAware Transoceanic
11:15AM 4.8077 -171.2301 226° Southwest 482 555 33,000  Level FlightAware Transoceanic
11:16AM 4.7149 -171.3254 226° Southwest 482 555 33,000  Level FlightAware Transoceanic
11:17AM 4.6220 -171.4207 226° Southwest 482 555 33,000  Level FlightAware Transoceanic
11:18AM 4.5292 -171.5159 226° Southwest 482 555 33,000  Level FlightAware Transoceanic
11:19AM 4.4363 -171.6111 226° Southwest 482 555 33,000  Level FlightAware Transoceanic
11:20AM 4.3434 -171.7063 226° Southwest 482 555 33,000  Level FlightAware Transoceanic
11:21AM 4.2505 -171.8015 226° Southwest 482 555 33,000  Level FlightAware Transoceanic
11:21AM 4.2500 -171.8000 226° Southwest 486 559 33,000  Level Oakland Oceanic (ODAPS)
11:22AM 4.1575 -171.8967 226° Southwest 482 555 33,000  Level FlightAware Transoceanic
11:23AM 4.0646 -171.9918 226° Southwest 482 555 33,000  Level FlightAware Transoceanic
11:24AM 3.9717 -172.0869 226° Southwest 482 555 33,000  Level FlightAware Transoceanic
11:25AM 3.8787 -172.1820 226° Southwest 482 555 33,000  Level FlightAware Transoceanic
11:26AM 3.7858 -172.2771 226° Southwest 482 555 33,000  Level FlightAware Transoceanic
11:27AM 3.6765 -172.3872 226° Southwest 486 559 33,000  Level FlightAware Transoceanic
11:28AM 3.5808 -172.4850 226° Southwest 486 559 33,000  Level FlightAware Transoceanic
11:29AM 3.4852 -172.5827 226° Southwest 486 559 33,000  Level FlightAware Transoceanic
11:30AM 3.3895 -172.6805 226° Southwest 486 559 33,000  Level FlightAware Transoceanic
11:31AM 3.2939 -172.7782 226° Southwest 486 559 33,000  Level FlightAware Transoceanic
11:32AM 3.1982 -172.8759 226° Southwest 486 559 33,000  Level FlightAware Transoceanic
11:33AM 3.1025 -172.9736 226° Southwest 486 559 33,000  Level FlightAware Transoceanic
11:34AM 3.0068 -173.0713 226° Southwest 486 559 33,000  Level FlightAware Transoceanic
11:35AM 2.9111 -173.1689 226° Southwest 486 559 33,000  Level FlightAware Transoceanic
11:35AM 2.9500 -173.1333 225° Southwest 485 558 33,000  Level Oakland Oceanic (ODAPS)
11:36AM 2.8154 -173.2666 226° Southwest 486 559 33,000  Level FlightAware Transoceanic
11:37AM 2.7197 -173.3642 226° Southwest 486 559 33,000  Level FlightAware Transoceanic
11:38AM 2.6240 -173.4618 226° Southwest 486 559 33,000  Level FlightAware Transoceanic
11:39AM 2.5283 -173.5594 226° Southwest 486 559 33,000  Level FlightAware Transoceanic
11:40AM 2.4325 -173.6570 226° Southwest 486 559 33,000  Level FlightAware Transoceanic
11:41AM 2.3912 -173.7021 225° Southwest 485 558 33,000  Level FlightAware Transoceanic
11:42AM 2.2980 -173.7968 225° Southwest 485 558 33,000  Level FlightAware Transoceanic
11:43AM 2.2048 -173.8915 225° Southwest 485 558 33,000  Level FlightAware Transoceanic
11:44AM 2.1117 -173.9862 225° Southwest 485 558 33,000  Level FlightAware Transoceanic
11:45AM 2.0185 -174.0809 225° Southwest 485 558 33,000  Level FlightAware Transoceanic
11:46AM 1.9253 -174.1756 225° Southwest 485 558 33,000  Level FlightAware Transoceanic
11:47AM 1.8321 -174.2703 225° Southwest 485 558 33,000  Level FlightAware Transoceanic
11:48AM 1.7389 -174.3650 225° Southwest 485 558 33,000  Level FlightAware Transoceanic
11:49AM 1.6457 -174.4596 225° Southwest 485 558 33,000  Level FlightAware Transoceanic
11:49AM 1.6333 -174.4667 226° Southwest 487 560 33,000  Level Oakland Oceanic (ODAPS)
11:50AM 1.5525 -174.5543 225° Southwest 485 558 33,000  Level FlightAware Transoceanic
11:51AM 1.4593 -174.6489 225° Southwest 485 558 33,000  Level FlightAware Transoceanic
11:52AM 1.3661 -174.7436 225° Southwest 485 558 33,000  Level FlightAware Transoceanic
11:53AM 1.2729 -174.8382 225° Southwest 485 558 33,000  Level FlightAware Transoceanic
11:54AM 1.1797 -174.9328 225° Southwest 485 558 33,000  Level FlightAware Transoceanic
11:55AM 1.0833 -175.0292 226° Southwest 487 560 33,000  Level FlightAware Transoceanic
11:56AM 0.9917 -175.1229 226° Southwest 487 560 33,000  Level FlightAware Transoceanic
11:56AM 0.9000 -175.2167 231° Southwest 488 562 33,000  Level Oakland Oceanic (ODAPS)
11:57AM 0.9000 -175.2167 231° Southwest 487 560 33,000  Level FlightAware Transoceanic
11:58AM 0.8133 -175.3229 231° Southwest 487 560 33,000  Level FlightAware Transoceanic
11:59AM 0.7266 -175.4292 231° Southwest 487 560 33,000  Level FlightAware Transoceanic
12:00PM 0.6399 -175.5354 231° Southwest 487 560 33,000  Level FlightAware Transoceanic
12:01PM 0.5532 -175.6416 231° Southwest 487 560 33,000  Level FlightAware Transoceanic
12:02PM 0.4665 -175.7478 231° Southwest 487 560 33,000  Level FlightAware Transoceanic
12:02PM 0.3667 -175.8667 231° Southwest 490 564 33,000  Level Oakland Oceanic (ODAPS)
12:03PM 0.3798 -175.8541 231° Southwest 488 562 33,000  Level FlightAware Transoceanic
12:04PM 0.2931 -175.9603 231° Southwest 488 562 33,000  Level FlightAware Transoceanic
12:05PM 0.2063 -176.0665 231° Southwest 488 562 33,000  Level FlightAware Transoceanic
12:06PM 0.1196 -176.1727 231° Southwest 488 562 33,000  Level FlightAware Transoceanic
12:07PM 0.0329 -176.2789 231° Southwest 488 562 33,000  Level FlightAware Transoceanic
12:08PM -0.0538 -176.3852 231° Southwest 488 562 33,000  Level FlightAware Transoceanic
12:09PM -0.1516 -176.5020 231° Southwest 490 564 33,000  Level FlightAware Transoceanic
12:10PM -0.2380 -176.6080 231° Southwest 490 564 33,000  Level FlightAware Transoceanic
12:11PM -0.3243 -176.7139 231° Southwest 490 564 33,000  Level FlightAware Transoceanic
12:12PM -0.4107 -176.8197 231° Southwest 490 564 33,000  Level FlightAware Transoceanic
12:13PM -0.4971 -176.9256 231° Southwest 490 564 33,000  Level FlightAware Transoceanic
12:14PM -0.5835 -177.0316 231° Southwest 490 564 33,000  Level FlightAware Transoceanic
12:15PM -0.6698 -177.1375 231° Southwest 490 564 33,000  Level FlightAware Transoceanic
12:16PM -0.7562 -177.2434 231° Southwest 490 564 33,000 540 Level FlightAware Transoceanic
12:16PM -0.8167 -177.3167 231° Southwest 486 559 34,000  Climbing Oakland Oceanic (ODAPS)
12:17PM -0.8426 -177.3493 231° Southwest 490 564 33,000 -900 Descending FlightAware Transoceanic
12:18PM -0.9289 -177.4552 231° Southwest 490 564 33,000  Level FlightAware Transoceanic
12:19PM -1.0153 -177.5611 231° Southwest 490 564 33,000  Level FlightAware Transoceanic
12:20PM -1.1016 -177.6671 231° Southwest 490 564 33,000  Level FlightAware Transoceanic
12:21PM -1.1880 -177.7730 231° Southwest 490 564 33,000  Level FlightAware Transoceanic
12:22PM -1.2744 -177.8790 231° Southwest 490 564 33,000 480 Level FlightAware Transoceanic
12:23PM -1.3410 -177.9601 231° Southwest 486 559 34,000 480 Climbing FlightAware Transoceanic
12:24PM -1.4284 -178.0674 231° Southwest 486 559 34,000  Level FlightAware Transoceanic
12:25PM -1.5158 -178.1746 231° Southwest 486 559 34,000  Level FlightAware Transoceanic
12:26PM -1.6031 -178.2819 231° Southwest 486 559 34,000  Level FlightAware Transoceanic
12:27PM -1.6905 -178.3892 231° Southwest 486 559 34,000  Level FlightAware Transoceanic
12:28PM -1.7778 -178.4965 231° Southwest 486 559 34,000  Level FlightAware Transoceanic
12:29PM -1.8652 -178.6038 231° Southwest 486 559 34,000  Level FlightAware Transoceanic
12:30PM -1.9525 -178.7111 231° Southwest 486 559 34,000  Level FlightAware Transoceanic
12:30PM -1.9833 -178.7500 231° Southwest 488 562 34,000  Level Oakland Oceanic (ODAPS)
12:31PM -2.0399 -178.8185 231° Southwest 486 559 34,000  Level FlightAware Transoceanic
12:32PM -2.1272 -178.9258 231° Southwest 486 559 34,000  Level FlightAware Transoceanic
12:33PM -2.2145 -179.0332 231° Southwest 486 559 34,000  Level FlightAware Transoceanic
12:34PM -2.3018 -179.1405 231° Southwest 486 559 34,000  Level FlightAware Transoceanic
12:35PM -2.3891 -179.2479 231° Southwest 486 559 34,000  Level FlightAware Transoceanic
12:36PM -2.4764 -179.3553 231° Southwest 486 559 34,000  Level FlightAware Transoceanic
12:37PM -2.5380 -179.4316 231° Southwest 488 562 34,000  Level FlightAware Transoceanic
12:38PM -2.6304 -179.5452 231° Southwest 488 562 34,000  Level FlightAware Transoceanic
12:39PM -2.7229 -179.6589 231° Southwest 488 562 34,000  Level FlightAware Transoceanic
12:40PM -2.8152 -179.7726 231° Southwest 488 562 34,000  Level FlightAware Transoceanic
12:41PM -2.9076 -179.8863 231° Southwest 488 562 34,000  Level FlightAware Transoceanic
12:42PM -3.0000 -180.0000 233° Southwest 488 562 34,000  Level FlightAware Transoceanic
12:43PM -3.0815 179.8904 233° Southwest 488 562 34,000  Level FlightAware Transoceanic
12:44PM -3.1631 179.7809 233° Southwest 488 562 34,000  Level FlightAware Transoceanic
12:45PM -3.2446 179.6713 233° Southwest 488 562 34,000  Level FlightAware Transoceanic
12:46PM -3.3261 179.5616 233° Southwest 488 562 34,000  Level FlightAware Transoceanic
12:47PM -3.4076 179.4520 233° Southwest 488 562 34,000  Level FlightAware Transoceanic
12:48PM -3.4891 179.3424 233° Southwest 488 562 34,000  Level FlightAware Transoceanic
12:49PM -3.5706 179.2327 233° Southwest 488 562 34,000  Level FlightAware Transoceanic
12:50PM -3.6520 179.1230 233° Southwest 488 562 34,000  Level FlightAware Transoceanic
12:51PM -3.7335 179.0133 233° Southwest 488 562 34,000  Level FlightAware Transoceanic
12:52PM -3.8149 178.9036 233° Southwest 488 562 34,000  Level FlightAware Transoceanic
12:53PM -3.8963 178.7938 233° Southwest 488 562 34,000  Level FlightAware Transoceanic
12:54PM -3.9777 178.6840 233° Southwest 488 562 34,000  Level FlightAware Transoceanic
12:55PM -4.0591 178.5742 233° Southwest 488 562 34,000  Level FlightAware Transoceanic
12:56PM -4.1405 178.4644 233° Southwest 488 562 34,000  Level FlightAware Transoceanic
12:57PM -4.2218 178.3546 233° Southwest 488 562 34,000  Level FlightAware Transoceanic
12:58PM -4.3032 178.2447 233° Southwest 488 562 34,000  Level FlightAware Transoceanic
12:59PM -4.3845 178.1349 233° Southwest 488 562 34,000  Level FlightAware Transoceanic
01:00PM -4.4658 178.0249 233° Southwest 488 562 34,000  Level FlightAware Transoceanic
01:01PM -4.5471 177.9150 233° Southwest 488 562 34,000  Level FlightAware Transoceanic
01:02PM -4.6284 177.8051 233° Southwest 488 562 34,000  Level FlightAware Transoceanic
01:03PM -4.7097 177.6951 233° Southwest 488 562 34,000  Level FlightAware Transoceanic
01:04PM -4.7909 177.5851 233° Southwest 488 562 34,000  Level FlightAware Transoceanic
01:05PM -4.8721 177.4750 233° Southwest 488 562 34,000  Level FlightAware Transoceanic
01:06PM -4.9533 177.3650 233° Southwest 488 562 34,000  Level FlightAware Transoceanic
01:07PM -5.0345 177.2549 233° Southwest 488 562 34,000  Level FlightAware Transoceanic
01:08PM -5.1157 177.1448 234° Southwest 488 562 34,000  Level FlightAware Transoceanic
01:09PM -5.1968 177.0346 234° Southwest 488 562 34,000  Level FlightAware Transoceanic
01:10PM -5.2780 176.9244 234° Southwest 488 562 34,000  Level FlightAware Transoceanic
01:11PM -5.3591 176.8142 234° Southwest 488 562 34,000  Level FlightAware Transoceanic
01:12PM -5.4402 176.7040 234° Southwest 488 562 34,000  Level FlightAware Transoceanic
01:13PM -5.5213 176.5938 234° Southwest 488 562 34,000  Level FlightAware Transoceanic
01:14PM -5.6023 176.4835 234° Southwest 488 562 34,000  Level FlightAware Transoceanic
01:15PM -5.6834 176.3731 234° Southwest 488 562 34,000  Level FlightAware Transoceanic
01:16PM -5.7644 176.2628 234° Southwest 488 562 34,000  Level FlightAware Transoceanic
01:17PM -5.8454 176.1524 234° Southwest 488 562 34,000  Level FlightAware Transoceanic
01:18PM -5.9263 176.0420 234° Southwest 488 562 34,000  Level FlightAware Transoceanic
01:19PM -6.0073 175.9315 234° Southwest 488 562 34,000  Level FlightAware Transoceanic
01:20PM -6.0882 175.8211 234° Southwest 488 562 34,000  Level FlightAware Transoceanic
01:21PM -6.1691 175.7106 234° Southwest 488 562 34,000  Level FlightAware Transoceanic
01:22PM -6.2284 175.5931 243° Southwest  Level FlightAware Approximate
01:23PM -6.2877 175.4756 243° Southwest  Level FlightAware Approximate
01:24PM -6.3178 175.5040 223° Southwest  Level FlightAware Approximate
01:25PM -6.4135 175.4140 223° Southwest  Level FlightAware Approximate
01:26PM -6.5091 175.3240 223° Southwest  Level FlightAware Approximate
01:27PM -6.6048 175.2340 223° Southwest  Level FlightAware Approximate
01:28PM -6.7004 175.1440 223° Southwest  Level FlightAware Approximate
01:29PM -6.7960 175.0539 223° Southwest  Level FlightAware Approximate
01:30PM -6.8916 174.9637 223° Southwest  Level FlightAware Approximate
01:31PM -6.9872 174.8736 223° Southwest  Level FlightAware Approximate
01:32PM -7.0827 174.7834 223° Southwest  Level FlightAware Approximate
01:33PM -7.1783 174.6931 223° Southwest  Level FlightAware Approximate
01:34PM -7.2738 174.6029 223° Southwest  Level FlightAware Approximate
01:35PM -7.3693 174.5126 223° Southwest  Level FlightAware Approximate
01:36PM -7.4648 174.4222 223° Southwest  Level FlightAware Approximate
01:37PM -7.5602 174.3318 223° Southwest  Level FlightAware Approximate
01:38PM -7.6557 174.2414 223° Southwest  Level FlightAware Approximate
01:39PM -7.7511 174.1509 223° Southwest  Level FlightAware Approximate
01:40PM -7.8465 174.0604 223° Southwest  Level FlightAware Approximate
01:41PM -7.9419 173.9699 223° Southwest  Level FlightAware Approximate
01:42PM -8.0373 173.8793 223° Southwest  Level FlightAware Approximate
01:43PM -8.1326 173.7886 223° Southwest  Level FlightAware Approximate
01:44PM -8.2280 173.6980 223° Southwest  Level FlightAware Approximate
01:45PM -8.3233 173.6072 223° Southwest  Level FlightAware Approximate
01:46PM -8.4186 173.5165 223° Southwest  Level FlightAware Approximate
01:47PM -8.5138 173.4256 223° Southwest  Level FlightAware Approximate
01:48PM -8.6091 173.3348 223° Southwest  Level FlightAware Approximate
01:49PM -8.7043 173.2439 223° Southwest  Level FlightAware Approximate
01:50PM -8.7995 173.1529 223° Southwest  Level FlightAware Approximate
01:51PM -8.8947 173.0619 223° Southwest  Level FlightAware Approximate
01:52PM -8.9899 172.9709 223° Southwest  Level FlightAware Approximate
01:53PM -9.0850 172.8798 223° Southwest  Level FlightAware Approximate
01:54PM -9.1801 172.7887 223° Southwest  Level FlightAware Approximate
01:55PM -9.2752 172.6975 223° Southwest  Level FlightAware Approximate
01:56PM -9.3703 172.6062 223° Southwest  Level FlightAware Approximate
01:57PM -9.4653 172.5150 223° Southwest  Level FlightAware Approximate
01:58PM -9.5603 172.4236 223° Southwest  Level FlightAware Approximate
01:59PM -9.6553 172.3322 223° Southwest  Level FlightAware Approximate
02:00PM -9.7503 172.2408 223° Southwest  Level FlightAware Approximate
02:01PM -9.8453 172.1493 224° Southwest  Level FlightAware Approximate
02:02PM -9.9402 172.0577 224° Southwest  Level FlightAware Approximate
02:03PM -10.0349 171.9660 224° Southwest  Level FlightAware Approximate
02:04PM -10.1294 171.8739 224° Southwest  Level FlightAware Approximate
02:05PM -10.2239 171.7818 224° Southwest  Level FlightAware Approximate
02:06PM -10.3183 171.6896 224° Southwest  Level FlightAware Approximate
02:07PM -10.4127 171.5974 224° Southwest  Level FlightAware Approximate
02:08PM -10.5071 171.5051 224° Southwest  Level FlightAware Approximate
02:09PM -10.6015 171.4127 224° Southwest  Level FlightAware Approximate
02:10PM -10.6958 171.3203 224° Southwest  Level FlightAware Approximate
02:11PM -10.7901 171.2279 224° Southwest  Level FlightAware Approximate
02:12PM -10.8844 171.1353 224° Southwest  Level FlightAware Approximate
02:13PM -10.9786 171.0428 224° Southwest  Level FlightAware Approximate
02:14PM -11.0728 170.9501 224° Southwest  Level FlightAware Approximate
02:15PM -11.1670 170.8574 224° Southwest  Level FlightAware Approximate
02:16PM -11.2612 170.7647 224° Southwest  Level FlightAware Approximate
02:17PM -11.3553 170.6719 224° Southwest  Level FlightAware Approximate
02:18PM -11.4494 170.5790 224° Southwest  Level FlightAware Approximate
02:19PM -11.5435 170.4861 224° Southwest  Level FlightAware Approximate
02:20PM -11.6375 170.3931 224° Southwest  Level FlightAware Approximate
02:21PM -11.7315 170.3000 224° Southwest  Level FlightAware Approximate
02:22PM -11.8255 170.2069 224° Southwest  Level FlightAware Approximate
02:23PM -11.9195 170.1137 224° Southwest  Level FlightAware Approximate
02:24PM -12.0134 170.0204 224° Southwest  Level FlightAware Approximate
02:25PM -12.1073 169.9271 224° Southwest  Level FlightAware Approximate
02:26PM -12.2011 169.8337 224° Southwest  Level FlightAware Approximate
02:27PM -12.2950 169.7402 224° Southwest  Level FlightAware Approximate
02:28PM -12.3888 169.6467 224° Southwest  Level FlightAware Approximate
02:29PM -12.4825 169.5531 224° Southwest  Level FlightAware Approximate
02:30PM -12.5763 169.4595 224° Southwest  Level FlightAware Approximate
02:31PM -12.6700 169.3658 224° Southwest  Level FlightAware Approximate
02:32PM -12.7636 169.2720 224° Southwest  Level FlightAware Approximate
02:33PM -12.8573 169.1781 224° Southwest  Level FlightAware Approximate
02:34PM -12.9509 169.0842 224° Southwest  Level FlightAware Approximate
02:35PM -13.0444 168.9902 224° Southwest  Level FlightAware Approximate
02:36PM -13.1380 168.8961 224° Southwest  Level FlightAware Approximate
02:37PM -13.2315 168.8020 224° Southwest  Level FlightAware Approximate
02:38PM -13.3249 168.7078 224° Southwest  Level FlightAware Approximate
02:39PM -13.4184 168.6135 224° Southwest  Level FlightAware Approximate
02:40PM -13.5118 168.5191 224° Southwest  Level FlightAware Approximate
02:41PM -13.6051 168.4247 225° Southwest  Level FlightAware Approximate
02:42PM -13.6985 168.3302 225° Southwest  Level FlightAware Approximate
02:43PM -13.7917 168.2356 225° Southwest  Level FlightAware Approximate
02:44PM -13.8850 168.1409 225° Southwest  Level FlightAware Approximate
02:45PM -13.9782 168.0462 225° Southwest  Level FlightAware Approximate
02:46PM -14.0714 167.9514 225° Southwest  Level FlightAware Approximate
02:47PM -14.1645 167.8565 225° Southwest  Level FlightAware Approximate
02:48PM -14.2576 167.7615 225° Southwest  Level FlightAware Approximate
02:49PM -14.3507 167.6664 225° Southwest  Level FlightAware Approximate
02:50PM -14.4437 167.5713 225° Southwest  Level FlightAware Approximate
02:51PM -14.5367 167.4761 225° Southwest  Level FlightAware Approximate
02:52PM -14.6297 167.3808 225° Southwest  Level FlightAware Approximate
02:53PM -14.7226 167.2854 225° Southwest  Level FlightAware Approximate
02:54PM -14.8155 167.1900 225° Southwest  Level FlightAware Approximate
02:55PM -14.9083 167.0945 225° Southwest  Level FlightAware Approximate
02:56PM -15.0012 166.9989 223° Southwest  Level FlightAware Approximate
02:57PM -15.0970 166.9066 223° Southwest  Level FlightAware Approximate
02:58PM -15.1929 166.8141 223° Southwest  Level FlightAware Approximate
02:59PM -15.2887 166.7216 223° Southwest  Level FlightAware Approximate
03:00PM -15.3844 166.6290 223° Southwest  Level FlightAware Approximate
03:01PM -15.4802 166.5363 223° Southwest  Level FlightAware Approximate
03:02PM -15.5759 166.4436 223° Southwest  Level FlightAware Approximate
03:03PM -15.6715 166.3507 223° Southwest  Level FlightAware Approximate
03:04PM -15.7671 166.2578 223° Southwest  Level FlightAware Approximate
03:05PM -15.8627 166.1648 223° Southwest  Level FlightAware Approximate
03:06PM -15.9582 166.0717 223° Southwest  Level FlightAware Approximate
03:07PM -16.0537 165.9785 223° Southwest  Level FlightAware Approximate
03:08PM -16.1492 165.8852 223° Southwest  Level FlightAware Approximate
03:09PM -16.2446 165.7918 223° Southwest  Level FlightAware Approximate
03:10PM -16.3400 165.6983 223° Southwest  Level FlightAware Approximate
03:11PM -16.4353 165.6048 223° Southwest  Level FlightAware Approximate
03:12PM -16.5306 165.5111 223° Southwest  Level FlightAware Approximate
03:13PM -16.6258 165.4174 223° Southwest  Level FlightAware Approximate
03:14PM -16.7210 165.3235 223° Southwest  Level FlightAware Approximate
03:15PM -16.8162 165.2296 223° Southwest  Level FlightAware Approximate
03:16PM -16.9113 165.1356 223° Southwest  Level FlightAware Approximate
03:17PM -17.0064 165.0414 223° Southwest  Level FlightAware Approximate
03:18PM -17.1014 164.9472 223° Southwest  Level FlightAware Approximate
03:19PM -17.1964 164.8529 223° Southwest  Level FlightAware Approximate
03:20PM -17.2913 164.7585 224° Southwest  Level FlightAware Approximate
03:21PM -17.3862 164.6640 224° Southwest  Level FlightAware Approximate
03:22PM -17.4811 164.5694 224° Southwest  Level FlightAware Approximate
03:23PM -17.5759 164.4747 224° Southwest  Level FlightAware Approximate
03:24PM -17.6707 164.3799 224° Southwest  Level FlightAware Approximate
03:25PM -17.7654 164.2850 224° Southwest  Level FlightAware Approximate
03:26PM -17.8601 164.1900 224° Southwest  Level FlightAware Approximate
03:27PM -17.9547 164.0949 224° Southwest  Level FlightAware Approximate
03:28PM -18.0493 163.9997 224° Southwest  Level FlightAware Approximate
03:29PM -18.1438 163.9044 224° Southwest  Level FlightAware Approximate
03:30PM -18.2383 163.8089 224° Southwest  Level FlightAware Approximate
03:31PM -18.3327 163.7134 224° Southwest  Level FlightAware Approximate
03:32PM -18.4272 163.6177 224° Southwest  Level FlightAware Approximate
03:33PM -18.5217 163.5219 224° Southwest  Level FlightAware Approximate
03:34PM -18.6161 163.4259 224° Southwest  Level FlightAware Approximate
03:35PM -18.7103 163.3300 224° Southwest  Level FlightAware Approximate
03:36PM -18.8045 163.2340 224° Southwest  Level FlightAware Approximate
03:37PM -18.8986 163.1379 224° Southwest  Level FlightAware Approximate
03:38PM -18.9927 163.0416 224° Southwest  Level FlightAware Approximate
03:39PM -19.0867 162.9453 224° Southwest  Level FlightAware Approximate
03:40PM -19.1806 162.8488 224° Southwest  Level FlightAware Approximate
03:41PM -19.2745 162.7522 224° Southwest  Level FlightAware Approximate
03:42PM -19.3683 162.6554 224° Southwest  Level FlightAware Approximate
03:43PM -19.4621 162.5586 224° Southwest  Level FlightAware Approximate
03:44PM -19.5558 162.4617 224° Southwest  Level FlightAware Approximate
03:45PM -19.6493 162.3648 224° Southwest  Level FlightAware Approximate
03:46PM -19.7428 162.2678 224° Southwest  Level FlightAware Approximate
03:47PM -19.8363 162.1706 224° Southwest  Level FlightAware Approximate
03:48PM -19.9297 162.0733 224° Southwest  Level FlightAware Approximate
03:49PM -20.0241 161.9771 222° Southwest  Level FlightAware Approximate
03:50PM -20.1215 161.8842 222° Southwest  Level FlightAware Approximate
03:51PM -20.2189 161.7913 222° Southwest  Level FlightAware Approximate
03:52PM -20.3162 161.6982 222° Southwest  Level FlightAware Approximate
03:53PM -20.4135 161.6051 222° Southwest  Level FlightAware Approximate
03:54PM -20.5107 161.5117 222° Southwest  Level FlightAware Approximate
03:55PM -20.6079 161.4183 222° Southwest  Level FlightAware Approximate
03:56PM -20.7050 161.3248 222° Southwest  Level FlightAware Approximate
03:57PM -20.8021 161.2311 222° Southwest  Level FlightAware Approximate
03:58PM -20.8992 161.1373 222° Southwest  Level FlightAware Approximate
03:59PM -20.9961 161.0435 222° Southwest  Level FlightAware Approximate
04:00PM -21.0945 160.9480 222° Southwest  Level FlightAware Approximate
04:01PM -21.1929 160.8524 222° Southwest  Level FlightAware Approximate
04:02PM -21.2911 160.7567 222° Southwest  Level FlightAware Approximate
04:03PM -21.3894 160.6609 222° Southwest  Level FlightAware Approximate
04:04PM -21.4876 160.5650 222° Southwest  Level FlightAware Approximate
04:05PM -21.5857 160.4689 222° Southwest  Level FlightAware Approximate
04:06PM -21.6838 160.3727 222° Southwest  Level FlightAware Approximate
04:07PM -21.7818 160.2763 222° Southwest  Level FlightAware Approximate
04:08PM -21.8797 160.1799 222° Southwest  Level FlightAware Approximate
04:09PM -21.9776 160.0833 222° Southwest  Level FlightAware Approximate
04:10PM -22.0755 159.9865 222° Southwest  Level FlightAware Approximate
04:11PM -22.1732 159.8896 223° Southwest  Level FlightAware Approximate
04:12PM -22.2710 159.7926 223° Southwest  Level FlightAware Approximate
04:13PM -22.3686 159.6955 223° Southwest  Level FlightAware Approximate
04:14PM -22.4662 159.5982 223° Southwest  Level FlightAware Approximate
04:15PM -22.5638 159.5008 223° Southwest  Level FlightAware Approximate
04:16PM -22.6613 159.4032 223° Southwest  Level FlightAware Approximate
04:17PM -22.7587 159.3055 223° Southwest  Level FlightAware Approximate
04:18PM -22.8561 159.2077 223° Southwest  Level FlightAware Approximate
04:19PM -22.9534 159.1097 223° Southwest  Level FlightAware Approximate
04:20PM -23.0507 159.0116 223° Southwest  Level FlightAware Approximate
04:21PM -23.1479 158.9133 223° Southwest  Level FlightAware Approximate
04:22PM -23.2450 158.8149 223° Southwest  Level FlightAware Approximate
04:23PM -23.3421 158.7164 223° Southwest  Level FlightAware Approximate
04:24PM -23.4391 158.6177 223° Southwest  Level FlightAware Approximate
04:25PM -23.5360 158.5189 223° Southwest  Level FlightAware Approximate
04:26PM -23.6329 158.4199 223° Southwest  Level FlightAware Approximate
04:27PM -23.7297 158.3208 223° Southwest  Level FlightAware Approximate
04:28PM -23.8265 158.2215 223° Southwest  Level FlightAware Approximate
04:29PM -23.9232 158.1221 223° Southwest  Level FlightAware Approximate
04:30PM -24.0198 158.0225 223° Southwest  Level FlightAware Approximate
04:31PM -24.1164 157.9228 223° Southwest  Level FlightAware Approximate
04:32PM -24.2129 157.8229 223° Southwest  Level FlightAware Approximate
04:33PM -24.3093 157.7229 223° Southwest  Level FlightAware Approximate
04:34PM -24.4057 157.6227 223° Southwest  Level FlightAware Approximate
04:35PM -24.5020 157.5224 223° Southwest  Level FlightAware Approximate
04:35PM -24.8600 157.1261 223° Southwest 459 528 36,000  Level Aus ATC (RADAR)
04:36PM -25.0108 156.9873 220° Southwest 465 535 36,000  Level Aus ATC (RADAR)
04:37PM -25.1187 156.8857 220° Southwest 466 536 36,000  Level Aus ATC (RADAR)
04:38PM -25.2351 156.7922 216° Southwest 470 541 36,000  Level Aus ATC (RADAR)
04:39PM -25.3479 156.6974 217° Southwest 467 537 36,000  Level Aus ATC (RADAR)
04:40PM -25.4290 156.6240 218° Southwest 475 547 36,000  Level FlightAware
04:40PM -25.4508 156.6070 218° Southwest 470 541 36,000  Level Aus ATC (RADAR)
04:41PM -25.4890 156.5720 218° Southwest 477 549 36,000  Level FlightAware
04:42PM -25.5630 156.5072 218° Southwest 475 547 36,000  Level Aus ATC (RADAR)
04:42PM -25.5730 156.4980 218° Southwest 479 551 36,000  Level FlightAware
04:42PM -25.6360 156.4420 219° Southwest 473 544 36,000  Level FlightAware
04:43PM -25.6738 156.4088 219° Southwest 470 541 36,000  Level Aus ATC (RADAR)
04:43PM -25.7190 156.3690 219° Southwest 473 544 36,000 240 Level FlightAware
04:44PM -25.7847 156.3108 219° Southwest 469 540 36,300  Climbing Aus ATC (RADAR)
04:44PM -25.7830 156.3120 219° Southwest 471 542 36,000 -480 Descending FlightAware
04:44PM -25.8490 156.2530 219° Southwest 472 543 36,000 300 Level FlightAware
04:45PM -25.9211 156.1895 219° Southwest 470 541 36,400  Climbing Aus ATC (RADAR)
04:45PM -25.9300 156.1830 219° Southwest 472 543 36,000 -480 Descending FlightAware
04:46PM -26.0130 156.1070 219° Southwest 468 539 36,000 300 Level FlightAware
04:46PM -26.0660 156.0626 219° Southwest 465 535 36,400  Climbing Aus ATC (RADAR)
04:47PM -26.0790 156.0480 219° Southwest 468 539 36,000 -480 Descending FlightAware
04:47PM -26.1490 155.9860 218° Southwest 469 540 36,000  Level FlightAware
04:48PM -26.2240 155.9190 219° Southwest 454 522 36,000  Level FlightAware
04:49PM -26.2900 155.8600 219° Southwest 447 514 36,000 420 Level FlightAware
04:49PM -26.3212 155.8322 219° Southwest 443 510 36,400  Climbing Aus ATC (RADAR)
04:49PM -26.3540 155.8030 219° Southwest 437 503 36,000 -360 Descending FlightAware
04:50PM -26.4200 155.7410 220° Southwest 430 495 36,000  Level FlightAware
04:51PM -26.4720 155.6720 230° Southwest 423 487 36,000  Level FlightAware
04:51PM -26.5200 155.6000 233° Southwest 422 486 36,000  Level FlightAware
04:52PM -26.5710 155.5210 234° Southwest 422 486 36,000 300 Level FlightAware
04:53PM -26.6112 155.4614 234° Southwest 418 481 36,400  Climbing Aus ATC (RADAR)
04:53PM -26.6170 155.4520 234° Southwest 421 484 36,000 -480 Descending FlightAware
04:54PM -26.6700 155.3720 233° Southwest 421 484 36,000  Level FlightAware
04:54PM -26.7090 155.3110 234° Southwest 420 483 36,000 -120 Level FlightAware
04:55PM -26.7526 155.2426 234° Southwest 407 468 35,900 -840 Descending Aus ATC (RADAR)
04:55PM -26.7580 155.2380 234° Southwest 402 463 35,400 -2,160 Descending FlightAware
04:56PM -26.8100 155.1580 234° Southwest 395 455 34,000 -1,860 Descending FlightAware
04:56PM -26.8520 155.0930 234° Southwest 389 448 32,800 -1,620 Descending FlightAware
04:57PM -26.8925 155.0308 234° Southwest 382 440 32,000 -1,800 Descending Aus ATC (RADAR)
04:57PM -26.8940 155.0290 234° Southwest 381 438 31,600 -2,100 Descending FlightAware
04:58PM -26.9400 154.9590 234° Southwest 374 430 30,300 -1,500 Descending FlightAware
04:58PM -26.9594 154.9291 234° Southwest 372 428 30,100 -1,800 Descending Aus ATC (RADAR)
04:58PM -26.9810 154.8960 234° Southwest 369 425 29,100 -1,680 Descending FlightAware
04:59PM -27.0240 154.8290 234° Southwest 363 418 28,300 -1,740 Descending Aus ATC (RADAR)
04:59PM -27.0240 154.8300 234° Southwest 360 414 27,800 -2,220 Descending FlightAware
05:00PM -27.0640 154.7680 234° Southwest 354 407 26,700 -1,620 Descending FlightAware
05:01PM -27.1020 154.7100 234° Southwest 349 402 25,700 -1,560 Descending FlightAware
05:01PM -27.1430 154.6450 235° Southwest 344 396 24,500 -1,560 Descending FlightAware
05:02PM -27.1800 154.5890 233° Southwest 340 391 23,500 -1,320 Descending FlightAware
05:02PM -27.2033 154.5515 233° Southwest 337 388 23,200 -1,680 Descending Aus ATC (RADAR)
05:03PM -27.2190 154.5280 233° Southwest 337 388 22,400 -1,560 Descending FlightAware
05:03PM -27.2363 154.5028 233° Southwest 336 387 22,300 -1,500 Descending Aus ATC (RADAR)
05:03PM -27.2600 154.4650 233° Southwest 333 383 21,300 -1,860 Descending FlightAware
05:04PM -27.2960 154.4080 235° Southwest 328 377 20,200 -1,320 Descending FlightAware
05:05PM -27.3251 154.3634 235° Southwest 325 374 19,800 -1,500 Descending Aus ATC (RADAR)
05:05PM -27.3360 154.3470 235° Southwest 323 372 19,100 -1,920 Descending FlightAware
05:05PM -27.3710 154.2930 234° Southwest 319 367 18,100 -1,440 Descending FlightAware
05:06PM -27.4090 154.2330 234° Southwest 316 364 17,100 -1,140 Descending FlightAware
05:07PM -27.4327 154.1957 234° Southwest 314 361 16,800 -1,500 Descending Aus ATC (RADAR)
05:07PM -27.4430 154.1800 234° Southwest 313 360 16,100 -1,500 Descending FlightAware
05:07PM -27.4664 154.1428 234° Southwest 312 359 15,800 -1,500 Descending Aus ATC (RADAR)
05:08PM -27.4760 154.1280 234° Southwest 311 358 15,100 -1,440 Descending FlightAware
05:08PM -27.4917 154.1037 234° Southwest 310 357 15,100 -1,380 Level Aus ATC (RADAR)
05:08PM -27.5110 154.0680 234° Southwest 307 353 14,100 -1,740 Descending FlightAware
05:09PM -27.5150 154.0430 260° West 305 351 13,800 -600 Descending FlightAware
05:09PM -27.5097 153.9995 260° West 300 345 13,700 -1,080 Descending Aus ATC (RADAR)
05:09PM -27.5070 153.9800 260° West 295 339 13,100 -1,080 Descending FlightAware
05:10PM -27.5008 153.9466 260° West 292 336 13,100 -900 Level Aus ATC (RADAR)
05:10PM -27.4970 153.9200 260° West 290 334 12,500 -1,320 Descending FlightAware
05:11PM -27.4850 153.8490 281° West 300 345 11,700 -1,080 Descending FlightAware
05:11PM -27.4750 153.7890 281° West 291 335 11,000 -780 Descending FlightAware
05:12PM -27.4711 153.7654 281° West 290 334 11,000 -1,020 Level Aus ATC (RADAR)
05:12PM -27.4675 153.7429 280° West 290 334 10,500 -2,220 Descending Aus ATC (RADAR)
05:12PM -27.4650 153.7240 280° West 284 327 9,900 -1,680 Descending FlightAware
05:12PM -27.4620 153.7090 283° West 280 322 9,800 -900 Descending FlightAware
05:13PM -27.4550 153.6660 280° West 272 313 9,300 -1,080 Descending FlightAware
05:13PM -27.4520 153.6470 280° West 269 310 9,000 -1,080 Descending FlightAware
05:13PM -27.4460 153.6110 281° West 263 303 8,600 -480 Descending FlightAware
05:14PM -27.4410 153.5892 281° West 262 302 8,700 -1,620 Climbing Aus ATC (RADAR)
05:14PM -27.4330 153.5740 281° West 272 313 7,800 -2,220 Descending FlightAware
05:14PM -27.4200 153.5560 309° West 271 312 7,600 -900 Descending FlightAware
05:15PM -27.4000 153.5310 312° West 267 307 7,200 -480 Descending FlightAware
05:15PM -27.3856 153.5137 312° West 266 306 7,300 -1,020 Climbing Aus ATC (RADAR)
05:15PM -27.3740 153.4980 312° West 278 320 6,700 -1,440 Descending FlightAware
05:15PM -27.3630 153.4840 311° West 271 312 6,600 -900 Descending FlightAware
05:16PM -27.3420 153.4580 312° West 266 306 6,100 -1,200 Descending FlightAware
05:16PM -27.3160 153.4260 312° West 265 305 5,500 -1,140 Descending FlightAware
05:17PM -27.2920 153.3960 312° West 265 305 5,000 -1,080 Descending FlightAware
05:17PM -27.2840 153.3860 312° West 264 304 4,800 -540 Descending FlightAware
05:17PM -27.2618 153.3581 312° West 262 302 4,700 -1,020 Descending Aus ATC (RADAR)
05:17PM -27.2590 153.3550 312° West 259 298 4,300 -720 Descending FlightAware
05:18PM -27.2370 153.3270 311° West 237 273 4,300 -480 Level FlightAware
05:18PM -27.2190 153.3040 311° West 231 266 3,900 -900 Descending FlightAware
05:19PM -27.2100 153.2880 302° West 227 261 3,700 -720 Descending FlightAware
05:19PM -27.2080 153.2770 282° West 222 255 3,600 -180 Descending FlightAware
05:19PM -27.2093 153.2421 282° West 212 244 3,600 -600 Level Aus ATC (RADAR)
05:19PM -27.2100 153.2420 282° West 203 234 3,300 -2,220 Descending FlightAware
05:19PM -27.2120 153.2340 254° West 192 221 3,200 -600 Descending FlightAware
05:20PM -27.2240 153.2210 224° Southwest 173 199 3,000 -840 Descending FlightAware
05:20PM -27.2440 153.2090 208° Southwest 169 194 2,500 -1,020 Descending FlightAware
05:21PM -27.2620 153.1990 206° Southwest 164 189 2,100 -900 Descending FlightAware
05:21PM -27.2810 153.1880 207° Southwest 160 184 1,700 -900 Descending FlightAware
05:22PM -27.2980 153.1780 208° Southwest 156 180 1,300 -480 Descending FlightAware
05:22PM -27.3166 153.1673 208° Southwest 147 169 1,300 -840 Level Aus ATC (RADAR)
05:22PM -27.3160 153.1680 208° Southwest 140 161 900 -1,620 Descending FlightAware
05:22PM -27.3300 153.1600 207° Southwest 134 154 600 -660 Descending FlightAware
05:23PM -27.3460 153.1510 207° Southwest 130 150 300 -600 Descending FlightAware
05:23PM -27.3620 153.1410 209° Southwest 133 153 -600 Descending FlightAware
05:24PM -27.3770 153.1330 205° Southwest 137 158  Level FlightAware
05:24PM -27.3900 153.1260 206° Southwest 82 94  Level FlightAware
05:25PM -27.3980 153.1210 209° Southwest 57 66  Level FlightAware